Time;durP1;ratioP1;P1;durP2;ratioP2;P2;SDS_P1;SDS_P2;PMS_P1;PMS_P2;Temp;Humidity;BMP_temperature;BMP_pressure;BME280_temperature;BME280_humidity;BME280_pressure;Samples;Min_cycle;Max_cycle;Signal;HPM_P1;HPM_P2
2021/10/14 00:00:46;;;;;;;4.33;3.10;;;;;;;8.20;79.52;101510.72;4865676;29;20904;-76
2021/10/14 00:03:11;;;;;;;3.90;3.23;;;;;;;8.23;79.91;101519.22;4837775;29;20463;-76
2021/10/14 00:05:37;;;;;;;4.05;3.58;;;;;;;8.27;79.47;101512.38;4852280;29;20448;-76
2021/10/14 00:08:03;;;;;;;4.45;3.72;;;;;;;8.28;79.52;101511.41;4858057;29;20406;-76
2021/10/14 00:10:28;;;;;;;5.00;3.67;;;;;;;8.26;79.30;101508.03;4836586;29;20422;-76
2021/10/14 00:12:54;;;;;;;4.13;3.33;;;;;;;8.23;79.65;101510.31;4853403;29;20745;-75
2021/10/14 00:15:20;;;;;;;3.55;3.25;;;;;;;8.21;79.32;101513.22;4851961;29;20460;-75
2021/10/14 00:17:46;;;;;;;8.50;3.90;;;;;;;8.25;79.38;101511.78;4852173;29;20497;-76
2021/10/14 00:20:11;;;;;;;8.27;3.73;;;;;;;8.28;79.03;101513.25;4836014;29;20522;-76
2021/10/14 00:22:37;;;;;;;6.80;3.90;;;;;;;8.33;78.78;101519.69;4840385;29;20423;-75
2021/10/14 00:25:03;;;;;;;5.00;3.92;;;;;;;8.38;79.42;101515.56;4850712;29;20439;-75
2021/10/14 00:27:29;;;;;;;3.83;3.43;;;;;;;8.38;78.61;101513.69;4864373;29;20414;-75
2021/10/14 00:29:54;;;;;;;3.70;3.30;;;;;;;8.40;77.82;101513.50;4859982;29;20435;-75
2021/10/14 00:32:19;;;;;;;4.97;2.90;;;;;;;8.40;77.59;101518.91;4842413;29;20458;-75
2021/10/14 00:34:45;;;;;;;7.40;2.70;;;;;;;8.38;77.34;101504.75;4856841;29;20786;-76
2021/10/14 00:37:10;;;;;;;2.90;2.60;;;;;;;8.35;77.24;101514.09;4857938;29;20477;-75
2021/10/14 00:39:35;;;;;;;2.43;2.33;;;;;;;8.32;76.64;101501.84;4841710;29;20422;-75
2021/10/14 00:42:01;;;;;;;3.97;2.00;;;;;;;8.27;76.17;101501.59;4859169;29;20770;-75
2021/10/14 00:44:26;;;;;;;3.30;2.07;;;;;;;8.23;76.11;101497.63;4856550;29;20466;-76
2021/10/14 00:46:53;;;;;;;3.27;2.47;;;;;;;8.22;76.31;101498.69;4858562;29;20782;-75
2021/10/14 00:49:19;;;;;;;3.75;2.13;;;;;;;8.22;76.66;101495.16;4853659;29;20438;-75
2021/10/14 00:51:46;;;;;;;3.17;2.30;;;;;;;8.23;76.55;101492.22;4848676;29;20431;-76
2021/10/14 00:54:12;;;;;;;3.30;2.00;;;;;;;8.22;76.83;101490.59;4853617;29;20414;-76
2021/10/14 00:56:40;;;;;;;2.75;2.55;;;;;;;8.24;76.83;101491.19;4855962;29;20482;-75
2021/10/14 00:59:06;;;;;;;3.90;2.60;;;;;;;8.28;76.70;101487.09;4859828;29;20414;-75
2021/10/14 01:01:31;;;;;;;3.17;2.57;;;;;;;8.30;77.20;101487.69;4856566;29;20965;-76
2021/10/14 01:03:57;;;;;;;4.77;2.23;;;;;;;8.27;77.39;101490.78;4851810;29;20418;-76
2021/10/14 01:06:22;;;;;;;6.93;3.17;;;;;;;8.26;77.56;101497.25;4855751;29;20414;-76
2021/10/14 01:08:47;;;;;;;3.40;2.27;;;;;;;8.26;78.22;101504.50;4849123;29;20470;-76
2021/10/14 01:11:13;;;;;;;3.97;2.90;;;;;;;8.27;77.79;101495.34;4851960;29;20418;-75
2021/10/14 01:13:38;;;;;;;3.87;2.97;;;;;;;8.27;78.10;101503.44;4857959;29;20422;-75
2021/10/14 01:16:04;;;;;;;5.10;2.90;;;;;;;8.25;77.89;101503.66;4860489;29;20501;-75
2021/10/14 01:18:30;;;;;;;3.10;2.80;;;;;;;8.24;78.30;101496.59;4855393;29;20504;-76
2021/10/14 01:20:55;;;;;;;3.75;3.08;;;;;;;8.22;78.77;101497.84;4856843;29;20880;-76
2021/10/14 01:23:20;;;;;;;4.77;3.90;;;;;;;8.20;78.45;101489.94;4861695;29;20711;-75
2021/10/14 01:25:46;;;;;;;3.70;3.17;;;;;;;8.19;78.93;101482.88;4851302;29;20427;-76
2021/10/14 01:28:12;;;;;;;3.60;3.30;;;;;;;8.14;78.78;101473.72;4858766;29;20426;-75
2021/10/14 01:30:37;;;;;;;3.30;3.07;;;;;;;8.09;78.33;101468.94;4854037;29;20474;-76
2021/10/14 01:33:03;;;;;;;11.13;8.80;;;;;;;8.05;78.93;101465.00;4851256;29;20501;-76
2021/10/14 01:35:28;;;;;;;6.38;3.78;;;;;;;8.03;78.95;101464.38;4857881;29;20450;-76
2021/10/14 01:37:53;;;;;;;3.87;2.70;;;;;;;8.01;78.65;101457.47;4855163;29;20419;-75
2021/10/14 01:40:18;;;;;;;3.20;2.97;;;;;;;7.95;78.43;101461.84;4859959;29;20421;-76
2021/10/14 01:42:44;;;;;;;2.43;2.23;;;;;;;7.91;78.48;101459.75;4861605;29;20414;-75
2021/10/14 01:45:09;;;;;;;3.87;2.40;;;;;;;7.90;78.66;101453.53;4837724;29;20516;-75
2021/10/14 01:47:35;;;;;;;3.40;2.50;;;;;;;7.91;78.01;101455.19;4856443;29;20424;-75
2021/10/14 01:50:00;;;;;;;2.63;2.43;;;;;;;7.92;77.72;101461.41;4859383;29;20538;-76
2021/10/14 01:52:25;;;;;;;4.07;2.20;;;;;;;7.91;77.82;101451.66;4840650;29;20854;-76
2021/10/14 01:54:51;;;;;;;3.17;2.20;;;;;;;7.84;78.35;101452.47;4859917;29;20418;-76
2021/10/14 01:57:16;;;;;;;2.40;2.20;;;;;;;7.81;78.21;101452.88;4854745;29;20755;-75
2021/10/14 01:59:42;;;;;;;2.97;2.50;;;;;;;7.79;77.80;101451.41;4864965;29;20422;-75
2021/10/14 02:02:07;;;;;;;4.75;2.00;;;;;;;7.77;78.26;101448.91;4861779;29;20422;-76
2021/10/14 02:04:33;;;;;;;5.53;2.60;;;;;;;7.75;77.98;101453.69;4844379;29;20414;-76
2021/10/14 02:06:58;;;;;;;2.20;2.00;;;;;;;7.74;77.91;101453.88;4861815;29;20414;-75
2021/10/14 02:09:24;;;;;;;2.77;2.17;;;;;;;7.62;77.88;101456.34;4854362;29;20981;-75
2021/10/14 02:11:49;;;;;;;3.33;2.30;;;;;;;7.62;77.39;101460.88;4863235;29;20414;-76
2021/10/14 02:14:15;;;;;;;3.00;2.23;;;;;;;7.57;77.48;101453.41;4843261;29;20414;-76
2021/10/14 02:16:40;;;;;;;3.70;2.00;;;;;;;7.55;77.57;101466.25;4860222;29;20429;-75
2021/10/14 02:19:05;;;;;;;3.07;2.20;;;;;;;7.59;77.54;101464.00;4861244;29;20470;-76
2021/10/14 02:21:31;;;;;;;2.55;2.00;;;;;;;7.60;77.47;101465.66;4861369;29;20925;-76
2021/10/14 02:23:56;;;;;;;2.47;2.27;;;;;;;7.56;77.77;101467.94;4867180;29;20412;-76
2021/10/14 02:26:21;;;;;;;3.13;2.90;;;;;;;7.53;78.21;101473.72;4853166;29;20460;-76
2021/10/14 02:28:46;;;;;;;3.40;2.97;;;;;;;7.52;78.59;101474.75;4852201;29;20851;-76
2021/10/14 02:31:12;;;;;;;3.17;2.70;;;;;;;7.54;78.07;101471.88;4863502;29;20426;-76
2021/10/14 02:33:37;;;;;;;3.20;2.90;;;;;;;7.56;78.35;101467.94;4861396;29;20517;-76
2021/10/14 02:36:03;;;;;;;4.80;3.00;;;;;;;7.57;78.02;101476.88;4855174;29;20486;-76
2021/10/14 02:38:28;;;;;;;2.70;2.50;;;;;;;7.54;78.29;101474.56;4853977;29;20517;-76
2021/10/14 02:40:53;;;;;;;5.53;3.23;;;;;;;7.54;78.94;101475.38;4858873;29;20429;-76
2021/10/14 02:43:18;;;;;;;5.47;3.00;;;;;;;7.53;77.93;101476.44;4859201;29;20449;-75
2021/10/14 02:45:44;;;;;;;4.32;2.70;;;;;;;7.51;78.74;101480.38;4856874;29;20906;-76
2021/10/14 02:48:09;;;;;;;2.90;2.67;;;;;;;7.46;78.79;101474.72;4862878;29;20781;-76
2021/10/14 02:50:34;;;;;;;2.97;2.77;;;;;;;7.44;78.52;101472.25;4842546;29;20425;-75
2021/10/14 02:53:01;;;;;;;2.75;2.55;;;;;;;7.40;78.84;101487.16;4858334;29;20467;-76
2021/10/14 02:55:27;;;;;;;3.63;2.50;;;;;;;7.39;78.90;101484.63;4855556;29;20460;-76
2021/10/14 02:57:52;;;;;;;3.87;2.43;;;;;;;7.38;78.80;101489.19;4858627;29;20427;-76
2021/10/14 03:00:17;;;;;;;3.20;2.60;;;;;;;7.34;78.69;101487.94;4859427;29;20433;-76
2021/10/14 03:02:42;;;;;;;3.70;2.50;;;;;;;7.28;78.84;101492.25;4860715;29;20418;-75
2021/10/14 03:05:08;;;;;;;2.93;2.73;;;;;;;7.27;78.71;101492.47;4842486;29;20921;-76
2021/10/14 03:07:34;;;;;;;5.90;2.78;;;;;;;7.24;78.52;101496.38;4860410;29;20429;-76
2021/10/14 03:09:59;;;;;;;3.20;2.90;;;;;;;7.20;78.85;101489.72;4860922;29;20457;-76
2021/10/14 03:12:24;;;;;;;6.17;3.40;;;;;;;7.17;78.82;101490.13;4858679;29;20945;-76
2021/10/14 03:14:50;;;;;;;4.77;3.07;;;;;;;7.18;78.40;101482.84;4850485;29;20412;-75
2021/10/14 03:17:15;;;;;;;3.60;2.97;;;;;;;7.17;78.39;101484.72;4857021;29;20430;-76
2021/10/14 03:19:40;;;;;;;3.53;2.80;;;;;;;7.17;78.72;101473.94;4859238;29;20414;-75
2021/10/14 03:22:06;;;;;;;6.78;3.05;;;;;;;7.17;78.02;101470.41;4858619;29;21165;-75
2021/10/14 03:24:31;;;;;;;2.70;2.50;;;;;;;7.20;78.13;101478.09;4859126;29;20656;-76
2021/10/14 03:26:56;;;;;;;7.13;2.80;;;;;;;7.19;78.55;101471.03;4856734;29;20429;-75
2021/10/14 03:29:21;;;;;;;9.83;3.70;;;;;;;7.15;78.38;101470.59;4851899;29;20432;-76
2021/10/14 03:31:47;;;;;;;3.90;2.97;;;;;;;7.20;78.50;101467.31;4856273;29;20422;-76
2021/10/14 03:34:12;;;;;;;3.78;2.90;;;;;;;7.20;78.47;101468.16;4856564;29;20477;-76
2021/10/14 03:36:37;;;;;;;6.03;3.07;;;;;;;7.22;77.91;101459.84;4859723;29;20425;-75
2021/10/14 03:39:03;;;;;;;3.37;2.70;;;;;;;7.30;77.57;101471.34;4856987;29;20906;-76
2021/10/14 03:41:28;;;;;;;3.50;2.50;;;;;;;7.34;77.29;101476.31;4860536;29;20509;-75
2021/10/14 03:43:54;;;;;;;2.77;2.43;;;;;;;7.35;77.22;101473.41;4857065;29;20802;-75
2021/10/14 03:46:19;;;;;;;4.37;2.70;;;;;;;7.33;77.57;101478.19;4859090;29;20426;-77
2021/10/14 03:48:44;;;;;;;3.13;2.67;;;;;;;7.34;77.31;101476.31;4859203;29;20441;-76
2021/10/14 03:51:09;;;;;;;6.53;2.63;;;;;;;7.34;77.88;101481.72;4860292;29;20767;-76
2021/10/14 03:53:35;;;;;;;5.30;2.93;;;;;;;7.33;77.47;101480.88;4856950;29;20430;-76
2021/10/14 03:56:00;;;;;;;4.37;3.10;;;;;;;7.34;77.70;101479.84;4859001;29;20425;-76
2021/10/14 03:58:25;;;;;;;3.03;2.80;;;;;;;7.33;78.02;101480.88;4842422;29;20418;-76
2021/10/14 04:00:51;;;;;;;3.67;3.00;;;;;;;7.32;77.88;101485.44;4857781;29;20975;-75
2021/10/14 04:03:16;;;;;;;4.17;2.80;;;;;;;7.35;78.03;101489.59;4858453;29;20826;-76
2021/10/14 04:05:41;;;;;;;3.00;2.70;;;;;;;7.34;77.96;101492.50;4847864;29;20491;-75
2021/10/14 04:08:07;;;;;;;3.70;3.30;;;;;;;7.31;78.45;101489.16;4856649;29;20445;-75
2021/10/14 04:10:32;;;;;;;4.87;3.50;;;;;;;7.26;77.96;101506.97;4847147;29;20576;-76
2021/10/14 04:12:57;;;;;;;3.90;3.60;;;;;;;7.21;78.31;101504.84;4847925;29;20811;-75
2021/10/14 04:15:22;;;;;;;3.50;3.20;;;;;;;7.21;78.97;101512.13;4855895;29;20474;-75
2021/10/14 04:17:48;;;;;;;6.00;3.90;;;;;;;7.17;78.60;101517.06;4852504;29;20428;-76
2021/10/14 04:20:13;;;;;;;5.80;3.93;;;;;;;7.15;78.77;101505.63;4842583;29;20493;-75
2021/10/14 04:22:39;;;;;;;5.80;3.80;;;;;;;7.16;78.83;101507.31;4854004;29;20969;-75
2021/10/14 04:25:04;;;;;;;4.93;3.93;;;;;;;7.10;78.64;101507.28;4827797;29;20421;-76
2021/10/14 04:27:30;;;;;;;7.38;4.72;;;;;;;7.07;78.86;101502.28;4848903;29;20424;-76
2021/10/14 04:29:55;;;;;;;6.73;3.67;;;;;;;7.07;79.10;101503.13;4852008;29;20820;-76
2021/10/14 04:32:20;;;;;;;5.03;4.50;;;;;;;7.06;79.02;101498.75;4858466;29;20410;-75
2021/10/14 04:34:46;;;;;;;4.70;3.87;;;;;;;7.00;79.17;101499.53;4858418;29;21061;-76
2021/10/14 04:37:11;;;;;;;10.67;8.27;;;;;;;6.96;79.13;101500.09;4852393;29;20441;-76
2021/10/14 04:39:37;;;;;;;6.73;5.53;;;;;;;6.91;78.94;101498.03;4852682;29;20429;-76
2021/10/14 04:42:04;;;;;;;5.53;4.75;;;;;;;6.87;79.48;101495.91;4859203;29;20414;-76
2021/10/14 04:44:30;;;;;;;7.32;4.72;;;;;;;6.83;79.59;101497.31;4858668;29;20434;-76
2021/10/14 04:46:55;;;;;;;7.83;4.60;;;;;;;6.77;79.58;101489.00;4852026;29;20416;-76
2021/10/14 04:49:20;;;;;;;7.50;4.83;;;;;;;6.78;79.37;101489.84;4856192;29;20907;-75
2021/10/14 04:51:46;;;;;;;6.80;4.30;;;;;;;6.85;80.09;101481.81;4847539;29;20435;-76
2021/10/14 04:54:11;;;;;;;6.30;4.00;;;;;;;6.92;78.88;101482.66;4856687;29;20423;-75
2021/10/14 04:56:36;;;;;;;5.30;3.63;;;;;;;6.93;79.18;101492.41;4854284;29;20828;-76
2021/10/14 04:59:02;;;;;;;5.93;3.70;;;;;;;6.96;79.56;101489.34;4854039;29;20459;-76
2021/10/14 05:01:27;;;;;;;7.40;3.80;;;;;;;6.94;79.19;101496.78;4847979;29;21437;-76
2021/10/14 05:03:52;;;;;;;5.47;3.63;;;;;;;6.92;79.62;101491.59;4847608;29;20444;-75
2021/10/14 05:06:18;;;;;;;7.17;4.43;;;;;;;6.94;79.39;101491.41;4858409;29;20426;-75
2021/10/14 05:08:43;;;;;;;13.43;9.23;;;;;;;6.94;79.41;101494.09;4854526;29;20438;-76
2021/10/14 05:11:12;;;;;;;22.53;11.90;;;;;;;6.82;79.12;101492.97;4850441;29;20413;-75
2021/10/14 05:13:38;;;;;;;24.10;10.90;;;;;;;6.84;79.43;101496.28;4854269;29;20509;-76
2021/10/14 05:16:03;;;;;;;78.27;30.47;;;;;;;6.84;79.64;101496.28;4857395;29;20446;-76
2021/10/14 05:18:28;;;;;;;41.87;20.50;;;;;;;6.79;79.34;101492.31;4851098;29;20433;-75
2021/10/14 05:20:54;;;;;;;32.20;17.07;;;;;;;6.82;79.63;101499.16;4852338;29;20410;-75
2021/10/14 05:23:19;;;;;;;18.83;11.90;;;;;;;6.83;79.64;101500.00;4858112;29;20826;-76
2021/10/14 05:25:44;;;;;;;15.60;8.83;;;;;;;6.77;79.36;101497.06;4858490;29;20414;-75
2021/10/14 05:28:09;;;;;;;13.97;7.90;;;;;;;6.75;79.62;101493.72;4848335;29;20471;-76
2021/10/14 05:30:35;;;;;;;9.87;5.50;;;;;;;6.71;79.88;101494.34;4836645;29;20511;-76
2021/10/14 05:33:00;;;;;;;8.90;5.97;;;;;;;6.72;79.94;101495.97;4840913;29;20414;-75
2021/10/14 05:35:25;;;;;;;5.83;5.07;;;;;;;6.70;79.46;101500.72;4858567;29;20433;-75
2021/10/14 05:37:50;;;;;;;5.47;4.80;;;;;;;6.64;79.85;101506.91;4857381;29;20424;-76
2021/10/14 05:40:16;;;;;;;8.43;5.50;;;;;;;6.68;80.49;101509.03;4856071;29;20438;-76
2021/10/14 05:42:41;;;;;;;11.23;7.30;;;;;;;6.66;79.61;101507.53;4855034;29;20418;-76
2021/10/14 05:45:07;;;;;;;21.70;10.13;;;;;;;6.60;80.46;101509.16;4853481;29;20926;-76
2021/10/14 05:47:33;;;;;;;19.35;10.15;;;;;;;6.56;80.33;101513.25;4837520;29;20424;-75
2021/10/14 05:49:59;;;;;;;16.52;8.70;;;;;;;6.63;79.82;101506.06;4858317;29;20448;-76
2021/10/14 05:52:24;;;;;;;12.38;8.70;;;;;;;6.68;79.62;101508.19;4850717;29;20774;-75
2021/10/14 05:54:50;;;;;;;9.07;6.37;;;;;;;6.77;79.99;101501.63;4857459;29;20514;-75
2021/10/14 05:57:15;;;;;;;7.13;5.70;;;;;;;6.76;79.70;101506.19;4858036;29;20422;-75
2021/10/14 05:59:40;;;;;;;13.27;9.07;;;;;;;6.71;79.79;101502.41;4858410;29;20974;-75
2021/10/14 06:02:05;;;;;;;9.90;7.43;;;;;;;6.68;79.43;101514.41;4858490;29;20414;-76
2021/10/14 06:04:31;;;;;;;8.17;7.33;;;;;;;6.69;79.97;101518.75;4844410;29;20428;-75
2021/10/14 06:06:56;;;;;;;9.90;6.90;;;;;;;6.62;79.63;101508.94;4855856;29;20414;-75
2021/10/14 06:09:21;;;;;;;7.17;4.97;;;;;;;6.68;79.87;101514.41;4857926;29;20434;-75
2021/10/14 06:11:47;;;;;;;8.30;5.47;;;;;;;6.76;79.04;101508.03;4841914;29;20430;-75
2021/10/14 06:14:12;;;;;;;8.30;5.50;;;;;;;6.76;78.81;101506.19;4858239;29;20536;-75
2021/10/14 06:16:37;;;;;;;7.40;5.70;;;;;;;6.70;79.58;101511.50;4865107;29;20461;-76
2021/10/14 06:19:02;;;;;;;11.00;7.10;;;;;;;6.66;79.66;101510.22;4858196;29;20410;-75
2021/10/14 06:21:28;;;;;;;11.80;7.33;;;;;;;6.68;79.44;101513.56;4854003;29;20433;-75
2021/10/14 06:23:53;;;;;;;10.20;6.00;;;;;;;6.66;79.97;101511.06;4839168;29;20430;-75
2021/10/14 06:26:18;;;;;;;13.15;5.80;;;;;;;6.68;79.42;101510.88;4843995;29;20961;-76
2021/10/14 06:28:44;;;;;;;8.10;5.40;;;;;;;6.69;79.30;101516.06;4844420;29;20434;-75
2021/10/14 06:31:09;;;;;;;9.53;5.63;;;;;;;6.72;79.76;101517.53;4852404;29;20826;-76
2021/10/14 06:33:34;;;;;;;8.50;5.75;;;;;;;6.81;79.48;101510.16;4859965;29;20834;-75
2021/10/14 06:36:00;;;;;;;6.83;5.50;;;;;;;6.90;78.94;101512.50;4860968;29;20476;-75
2021/10/14 06:38:25;;;;;;;8.10;5.43;;;;;;;6.99;79.07;101508.63;4856527;29;20809;-75
2021/10/14 06:40:50;;;;;;;7.47;5.63;;;;;;;7.01;78.79;101516.53;4861106;29;20433;-75
2021/10/14 06:43:16;;;;;;;8.27;5.73;;;;;;;7.02;79.02;101510.94;4860671;29;20437;-76
2021/10/14 06:45:41;;;;;;;8.37;5.53;;;;;;;6.94;79.84;101515.66;4816171;29;20991;-76
2021/10/14 06:48:08;;;;;;;7.07;5.20;;;;;;;6.97;79.89;101520.66;4836139;29;20440;-76
2021/10/14 06:50:34;;;;;;;9.85;6.22;;;;;;;7.08;79.83;101514.72;4838543;29;20437;-76
2021/10/14 06:53:00;;;;;;;7.65;6.60;;;;;;;7.19;79.46;101519.56;4835315;29;20422;-76
2021/10/14 06:55:26;;;;;;;9.03;6.23;;;;;;;7.27;79.21;101519.44;4838599;29;20798;-76
2021/10/14 06:57:51;;;;;;;7.83;6.10;;;;;;;7.30;79.17;101514.47;4822233;29;20466;-76
2021/10/14 07:00:22;;;;;;;9.70;6.93;;;;;;;7.37;78.50;101521.75;4837097;29;20439;-75
2021/10/14 07:02:53;;;;;;;9.20;7.05;;;;;;;7.42;78.79;101517.44;4836540;29;20482;-76
2021/10/14 07:05:18;;;;;;;9.27;6.65;;;;;;;7.45;78.95;101522.44;4835820;29;20968;-76
2021/10/14 07:07:44;;;;;;;8.13;6.57;;;;;;;7.51;78.86;101521.63;4837392;29;20439;-76
2021/10/14 07:10:09;;;;;;;12.10;8.48;;;;;;;7.53;78.17;101518.75;4834992;29;20525;-76
2021/10/14 07:12:38;;;;;;;10.30;6.60;;;;;;;7.50;78.64;101524.53;4837864;29;20490;-76
2021/10/14 07:15:04;;;;;;;10.32;7.45;;;;;;;7.57;78.33;101526.25;4836263;29;20454;-76
2021/10/14 07:17:29;;;;;;;17.27;10.13;;;;;;;7.62;78.55;101518.38;4838630;29;20767;-76
2021/10/14 07:19:54;;;;;;;10.20;8.20;;;;;;;7.65;78.91;101517.13;4832109;29;20430;-76
2021/10/14 07:22:20;;;;;;;10.07;7.33;;;;;;;7.73;78.45;101519.69;4837467;29;20532;-76
2021/10/14 07:24:45;;;;;;;12.15;6.68;;;;;;;7.70;79.05;101518.22;4836446;29;20422;-75
2021/10/14 07:27:11;;;;;;;14.20;9.97;;;;;;;7.71;79.08;101524.44;4835071;29;20519;-76
2021/10/14 07:29:36;;;;;;;8.50;6.67;;;;;;;7.64;79.41;101520.88;4843641;29;20442;-75
2021/10/14 07:32:03;;;;;;;8.37;5.97;;;;;;;7.72;79.70;101524.25;4850986;29;20630;-75
2021/10/14 07:34:28;;;;;;;8.27;5.60;;;;;;;7.73;79.76;101525.06;4839276;29;20480;-76
2021/10/14 07:36:53;;;;;;;6.97;5.77;;;;;;;7.81;79.76;101527.59;4836660;29;20913;-75
2021/10/14 07:39:19;;;;;;;9.17;6.13;;;;;;;7.88;79.98;101524.91;4834910;29;20428;-76
2021/10/14 07:41:46;;;;;;;7.80;6.63;;;;;;;8.00;79.56;101534.94;4837889;29;20425;-76
2021/10/14 07:44:13;;;;;;;6.28;5.22;;;;;;;8.06;79.25;101531.44;4834507;29;20807;-76
2021/10/14 07:46:38;;;;;;;7.75;5.00;;;;;;;8.03;78.87;101529.16;4836876;29;20430;-76
2021/10/14 07:49:04;;;;;;;10.67;5.67;;;;;;;8.03;79.23;101536.41;4832706;29;20842;-76
2021/10/14 07:51:29;;;;;;;6.53;4.80;;;;;;;8.11;79.32;101538.91;4836505;29;20455;-76
2021/10/14 07:53:55;;;;;;;5.90;5.30;;;;;;;8.18;78.12;101545.19;4837428;29;20974;-76
2021/10/14 07:56:20;;;;;;;8.45;6.13;;;;;;;8.25;78.26;101538.78;4858679;29;20463;-75
2021/10/14 07:58:46;;;;;;;6.07;5.57;;;;;;;8.30;78.85;101541.72;4867414;29;20417;-75
2021/10/14 08:01:11;;;;;;;5.83;5.13;;;;;;;8.28;78.86;101541.09;4836701;29;20430;-75
2021/10/14 08:03:37;;;;;;;8.67;5.60;;;;;;;8.25;79.40;101535.25;4858860;29;20422;-76
2021/10/14 08:06:02;;;;;;;8.13;5.68;;;;;;;8.23;79.73;101537.31;4855763;29;20479;-76
2021/10/14 08:08:28;;;;;;;7.07;5.67;;;;;;;8.28;79.70;101538.41;4855964;29;21174;-75
2021/10/14 08:10:54;;;;;;;6.50;4.87;;;;;;;8.53;78.93;101546.75;4858090;29;20430;-76
2021/10/14 08:13:19;;;;;;;8.88;4.97;;;;;;;8.69;79.11;101538.25;4856973;29;20513;-76
2021/10/14 08:15:49;;;;;;;7.40;5.43;;;;;;;8.85;78.17;101547.84;4852535;29;20514;-76
2021/10/14 08:18:15;;;;;;;9.07;5.70;;;;;;;8.86;78.00;101546.78;4858126;29;20418;-76
2021/10/14 08:20:40;;;;;;;11.13;7.03;;;;;;;8.90;78.31;101545.34;4853064;29;20419;-75
2021/10/14 08:23:07;;;;;;;11.07;6.80;;;;;;;8.99;78.23;101544.09;4853861;29;20434;-75
2021/10/14 08:25:32;;;;;;;11.60;6.30;;;;;;;9.07;77.85;101545.75;4858401;29;20470;-75
2021/10/14 08:27:58;;;;;;;7.17;6.30;;;;;;;8.93;78.38;101542.22;4850993;29;20445;-76
2021/10/14 08:30:23;;;;;;;9.00;7.07;;;;;;;8.81;78.88;101538.50;4863708;29;20434;-76
2021/10/14 08:32:52;;;;;;;9.63;6.87;;;;;;;8.86;78.73;101535.97;4857721;29;20422;-76
2021/10/14 08:35:17;;;;;;;11.98;6.72;;;;;;;8.95;77.96;101523.09;4854877;29;20428;-75
2021/10/14 08:37:42;;;;;;;9.23;6.97;;;;;;;9.01;78.23;101528.50;4857035;29;20834;-75
2021/10/14 08:40:08;;;;;;;11.07;7.43;;;;;;;9.15;77.85;101529.34;4858471;29;20422;-76
2021/10/14 08:42:34;;;;;;;8.48;7.20;;;;;;;9.27;77.29;101542.00;4855853;29;20444;-75
2021/10/14 08:45:05;;;;;;;13.40;9.70;;;;;;;9.47;77.43;101541.16;4856351;29;20906;-76
2021/10/14 08:47:31;;;;;;;12.60;7.82;;;;;;;9.67;76.95;101534.66;4856110;29;20422;-75
2021/10/14 08:49:58;;;;;;;10.60;7.72;;;;;;;9.77;76.24;101536.91;4855726;29;20763;-76
2021/10/14 08:52:24;;;;;;;8.52;6.95;;;;;;;9.86;75.36;101536.44;4856694;29;20429;-75
2021/10/14 08:54:49;;;;;;;10.53;6.30;;;;;;;10.01;74.81;101538.06;4858305;29;20414;-76
2021/10/14 08:57:17;;;;;;;9.70;6.40;;;;;;;10.21;74.79;101541.53;4825522;29;20434;-75
2021/10/14 08:59:43;;;;;;;7.38;6.20;;;;;;;10.36;73.94;101533.97;4853870;29;20502;-75
2021/10/14 09:02:08;;;;;;;11.30;6.00;;;;;;;10.40;73.26;101524.34;4858805;29;20977;-76
2021/10/14 09:04:57;;;;;;;8.27;5.53;;;;;;;10.41;72.54;101523.28;4859035;29;20960;-75
2021/10/14 09:07:24;;;;;;;6.95;6.25;;;;;;;10.40;72.78;101522.47;4857232;29;20410;-76
2021/10/14 09:09:50;;;;;;;12.27;6.20;;;;;;;10.48;73.34;101513.22;4858768;29;20434;-76
2021/10/14 09:12:19;;;;;;;7.93;5.82;;;;;;;10.54;74.19;101512.34;4855570;29;20429;-76
2021/10/14 09:15:02;;;;;;;10.65;6.20;;;;;;;10.83;73.61;101513.63;4851510;29;20416;-76
2021/10/14 09:17:36;;;;;;;11.75;6.68;;;;;;;11.00;72.65;101500.34;4851844;29;21002;-75
2021/10/14 09:20:21;;;;;;;8.43;5.55;;;;;;;11.16;71.82;101506.03;4859235;29;20491;-76
2021/10/14 09:23:11;;;;;;;5.05;4.43;;;;;;;11.19;70.65;101507.47;4842043;29;20430;-76
2021/10/14 09:25:45;;;;;;;7.63;5.28;;;;;;;11.21;70.45;101506.19;4853396;29;20439;-76
2021/10/14 09:28:21;;;;;;;5.65;5.05;;;;;;;11.26;70.39;101500.88;4857596;29;20414;-75
2021/10/14 09:31:02;;;;;;;8.70;5.93;;;;;;;11.27;70.85;101510.69;4854950;29;20576;-76
2021/10/14 09:33:35;;;;;;;6.90;4.75;;;;;;;11.32;71.02;101510.03;4837956;29;20528;-76
2021/10/14 09:36:18;;;;;;;7.93;5.15;;;;;;;11.41;70.85;101501.38;4850118;29;20502;-76
2021/10/14 09:38:45;;;;;;;6.95;4.90;;;;;;;11.55;70.75;101499.34;4855570;29;20480;-77
2021/10/14 09:41:14;;;;;;;7.25;4.75;;;;;;;11.65;70.10;101499.66;4848938;29;20432;-76
2021/10/14 09:43:42;;;;;;;5.82;4.53;;;;;;;11.67;70.19;101505.69;4857132;29;20509;-76
2021/10/14 09:46:08;;;;;;;7.13;5.18;;;;;;;11.62;70.75;101497.41;4851529;29;20791;-76
2021/10/14 09:48:36;;;;;;;6.90;4.90;;;;;;;11.70;71.10;101501.69;4857163;29;20421;-76
2021/10/14 09:51:02;;;;;;;5.20;4.63;;;;;;;11.83;71.00;101506.97;4858560;29;20425;-76
2021/10/14 09:53:27;;;;;;;7.20;5.40;;;;;;;11.72;70.59;101502.31;4856858;29;20423;-76
2021/10/14 09:55:54;;;;;;;12.37;5.77;;;;;;;11.73;70.62;101503.97;4842386;29;20423;-75
2021/10/14 09:58:22;;;;;;;9.02;6.05;;;;;;;11.78;70.31;101490.56;4848848;29;20414;-76
2021/10/14 10:00:48;;;;;;;8.57;5.72;;;;;;;11.96;70.13;101498.66;4865499;29;20426;-76
2021/10/14 10:03:19;;;;;;;7.32;5.15;;;;;;;12.08;69.25;101496.03;4851556;29;20800;-76
2021/10/14 10:05:49;;;;;;;11.47;5.47;;;;;;;12.45;66.94;101494.84;4856537;29;20406;-76
2021/10/14 10:08:25;;;;;;;16.90;8.55;;;;;;;12.43;67.37;101492.38;4856945;29;20518;-75
2021/10/14 10:10:52;;;;;;;9.00;6.05;;;;;;;12.51;67.48;101493.94;4858351;29;20493;-76
2021/10/14 10:13:18;;;;;;;8.50;5.93;;;;;;;12.89;66.60;101493.53;4861390;29;20418;-75
2021/10/14 10:15:47;;;;;;;16.30;8.70;;;;;;;13.13;65.79;101483.50;4860123;29;20453;-75
2021/10/14 10:18:27;;;;;;;14.13;8.25;;;;;;;13.45;65.47;101493.78;4853096;29;20935;-76
2021/10/14 10:21:02;;;;;;;9.10;6.00;;;;;;;15.31;60.26;101489.34;4865272;29;20421;-76
2021/10/14 10:23:45;;;;;;;8.38;5.15;;;;;;;17.97;52.68;101481.97;4859078;29;20453;-76
2021/10/14 10:26:49;;;;;;;7.93;4.93;;;;;;;17.90;51.60;101489.63;4850289;29;20447;-76
2021/10/14 10:29:14;;;;;;;8.52;5.00;;;;;;;16.27;55.26;101476.91;4812791;29;20874;-76
2021/10/14 10:31:46;;;;;;;8.90;4.30;;;;;;;15.56;57.61;101487.81;4819766;29;20923;-76
2021/10/14 10:37:21;;;;;;;6.10;4.80;;;;;;;14.74;59.00;101481.34;4859266;29;20422;-76
2021/10/14 10:39:50;;;;;;;6.40;4.30;;;;;;;14.58;60.37;101478.59;4858815;29;20451;-76
2021/10/14 10:42:36;;;;;;;5.27;4.57;;;;;;;14.30;61.29;101476.69;4859561;29;20766;-75
2021/10/14 10:45:22;;;;;;;6.95;3.75;;;;;;;14.19;61.92;101477.59;4855004;29;20790;-75
2021/10/14 10:47:54;;;;;;;6.50;4.50;;;;;;;14.20;62.07;101471.88;4857617;29;20536;-76
2021/10/14 10:50:28;;;;;;;6.40;3.73;;;;;;;14.27;61.68;101463.56;4859792;29;20543;-76
2021/10/14 10:53:11;;;;;;;7.80;3.92;;;;;;;14.12;62.44;101468.72;4845158;29;20788;-75
2021/10/14 10:55:42;;;;;;;9.57;4.28;;;;;;;13.87;63.29;101469.88;4843489;29;20456;-75
2021/10/14 10:58:10;;;;;;;5.28;3.70;;;;;;;13.73;63.63;101470.41;4857040;29;20422;-75
2021/10/14 11:00:38;;;;;;;7.20;3.40;;;;;;;13.77;62.95;101457.94;4850495;29;20423;-77
2021/10/14 11:03:21;;;;;;;7.85;3.88;;;;;;;13.79;62.70;101458.56;4851498;29;20431;-76
2021/10/14 11:05:55;;;;;;;6.60;3.40;;;;;;;13.74;63.41;101452.97;4860124;29;20767;-76
2021/10/14 11:08:25;;;;;;;6.78;3.67;;;;;;;13.66;63.39;101456.09;4846619;29;20426;-76
2021/10/14 11:10:57;;;;;;;5.18;3.50;;;;;;;13.60;63.37;101438.00;4856301;29;20430;-75
2021/10/14 11:13:24;;;;;;;5.25;3.97;;;;;;;13.51;64.36;101441.09;4832309;29;20435;-76
2021/10/14 11:15:53;;;;;;;3.38;3.08;;;;;;;13.34;64.49;101431.16;4857729;29;20442;-75
2021/10/14 11:18:19;;;;;;;5.30;3.40;;;;;;;13.17;64.75;101441.97;4860706;29;20414;-76
2021/10/14 11:20:57;;;;;;;5.80;3.28;;;;;;;13.14;65.21;101428.03;4836719;29;20489;-76
2021/10/14 11:23:25;;;;;;;6.07;3.30;;;;;;;13.10;65.05;101422.22;4847983;29;20500;-76
2021/10/14 11:26:09;;;;;;;5.05;3.25;;;;;;;13.12;64.97;101420.09;4858153;29;20499;-76
2021/10/14 11:28:51;;;;;;;5.72;3.38;;;;;;;13.06;65.48;101409.28;4849073;29;20435;-75
2021/10/14 11:31:30;;;;;;;2.80;2.50;;;;;;;13.04;65.26;101409.50;4852324;29;20411;-75